sensor_id;sensor_type;location;lat;lon;timestamp;temperature;humidity
66140;DHT22;52945;51.908;8.364;2023-12-04T00:00:08;1.80;76.30
66140;DHT22;52945;51.908;8.364;2023-12-04T00:03:09;1.80;76.50
66140;DHT22;52945;51.908;8.364;2023-12-04T00:06:13;1.80;76.50
66140;DHT22;52945;51.908;8.364;2023-12-04T00:09:13;1.80;76.80
66140;DHT22;52945;51.908;8.364;2023-12-04T00:12:14;1.80;76.90
66140;DHT22;52945;51.908;8.364;2023-12-04T00:15:15;1.80;76.80
66140;DHT22;52945;51.908;8.364;2023-12-04T00:18:16;1.90;76.90
66140;DHT22;52945;51.908;8.364;2023-12-04T00:21:17;1.80;77.20
66140;DHT22;52945;51.908;8.364;2023-12-04T00:24:17;1.80;77.20
66140;DHT22;52945;51.908;8.364;2023-12-04T00:27:18;1.80;77.20
66140;DHT22;52945;51.908;8.364;2023-12-04T00:30:18;1.80;77.20
66140;DHT22;52945;51.908;8.364;2023-12-04T00:33:19;1.90;77.10
66140;DHT22;52945;51.908;8.364;2023-12-04T00:36:19;1.90;77.20
66140;DHT22;52945;51.908;8.364;2023-12-04T00:39:20;1.90;77.40
66140;DHT22;52945;51.908;8.364;2023-12-04T00:42:21;1.70;77.70
66140;DHT22;52945;51.908;8.364;2023-12-04T00:45:22;1.70;78.00
66140;DHT22;52945;51.908;8.364;2023-12-04T00:48:22;1.70;77.90
66140;DHT22;52945;51.908;8.364;2023-12-04T00:51:23;1.90;77.70
66140;DHT22;52945;51.908;8.364;2023-12-04T00:54:23;1.80;78.00
66140;DHT22;52945;51.908;8.364;2023-12-04T00:57:24;1.80;77.70
66140;DHT22;52945;51.908;8.364;2023-12-04T01:00:24;1.80;78.00
66140;DHT22;52945;51.908;8.364;2023-12-04T01:03:25;1.90;78.00
66140;DHT22;52945;51.908;8.364;2023-12-04T01:06:26;1.90;77.80
66140;DHT22;52945;51.908;8.364;2023-12-04T01:09:27;1.80;77.80
66140;DHT22;52945;51.908;8.364;2023-12-04T01:12:28;1.80;78.00
66140;DHT22;52945;51.908;8.364;2023-12-04T01:15:28;1.80;78.00
66140;DHT22;52945;51.908;8.364;2023-12-04T01:18:29;1.80;78.00
66140;DHT22;52945;51.908;8.364;2023-12-04T01:21:29;1.80;77.90
66140;DHT22;52945;51.908;8.364;2023-12-04T01:24:30;1.80;78.20
66140;DHT22;52945;51.908;8.364;2023-12-04T01:27:30;1.70;78.00
66140;DHT22;52945;51.908;8.364;2023-12-04T01:30:31;1.70;78.40
66140;DHT22;52945;51.908;8.364;2023-12-04T01:33:31;1.70;78.30
66140;DHT22;52945;51.908;8.364;2023-12-04T01:36:32;1.80;78.20
66140;DHT22;52945;51.908;8.364;2023-12-04T01:39:33;1.80;78.20
66140;DHT22;52945;51.908;8.364;2023-12-04T01:42:33;1.80;78.00
66140;DHT22;52945;51.908;8.364;2023-12-04T01:45:34;1.80;77.90
66140;DHT22;52945;51.908;8.364;2023-12-04T01:48:36;1.80;78.10
66140;DHT22;52945;51.908;8.364;2023-12-04T01:51:37;1.80;77.80
66140;DHT22;52945;51.908;8.364;2023-12-04T01:54:38;1.80;78.00
66140;DHT22;52945;51.908;8.364;2023-12-04T01:57:39;1.80;77.60
66140;DHT22;52945;51.908;8.364;2023-12-04T02:00:39;1.80;77.90
66140;DHT22;52945;51.908;8.364;2023-12-04T02:03:40;1.70;77.80
66140;DHT22;52945;51.908;8.364;2023-12-04T02:06:41;1.90;77.80
66140;DHT22;52945;51.908;8.364;2023-12-04T02:09:42;1.80;77.70
66140;DHT22;52945;51.908;8.364;2023-12-04T02:12:42;1.70;77.80
66140;DHT22;52945;51.908;8.364;2023-12-04T02:15:44;1.90;77.80
66140;DHT22;52945;51.908;8.364;2023-12-04T02:18:46;1.90;77.40
66140;DHT22;52945;51.908;8.364;2023-12-04T02:21:46;1.90;77.20
66140;DHT22;52945;51.908;8.364;2023-12-04T02:24:47;1.90;77.20
66140;DHT22;52945;51.908;8.364;2023-12-04T02:27:50;1.90;77.00
66140;DHT22;52945;51.908;8.364;2023-12-04T02:30:51;2.10;76.60
66140;DHT22;52945;51.908;8.364;2023-12-04T02:33:53;2.10;76.50
66140;DHT22;52945;51.908;8.364;2023-12-04T02:36:56;2.00;76.30
66140;DHT22;52945;51.908;8.364;2023-12-04T02:39:58;2.10;76.40
66140;DHT22;52945;51.908;8.364;2023-12-04T02:42:59;2.10;76.10
66140;DHT22;52945;51.908;8.364;2023-12-04T02:45:59;2.00;76.10
66140;DHT22;52945;51.908;8.364;2023-12-04T02:49:00;2.00;75.90
66140;DHT22;52945;51.908;8.364;2023-12-04T02:52:01;1.90;76.10
66140;DHT22;52945;51.908;8.364;2023-12-04T02:55:03;1.90;76.00
66140;DHT22;52945;51.908;8.364;2023-12-04T02:58:04;2.00;75.80
66140;DHT22;52945;51.908;8.364;2023-12-04T03:01:05;1.90;75.20
66140;DHT22;52945;51.908;8.364;2023-12-04T03:04:05;1.90;74.80
66140;DHT22;52945;51.908;8.364;2023-12-04T03:07:06;2.00;75.00
66140;DHT22;52945;51.908;8.364;2023-12-04T03:10:07;2.00;74.40
66140;DHT22;52945;51.908;8.364;2023-12-04T03:13:08;2.10;74.20
66140;DHT22;52945;51.908;8.364;2023-12-04T03:16:16;2.10;73.80
66140;DHT22;52945;51.908;8.364;2023-12-04T03:19:17;2.10;73.50
66140;DHT22;52945;51.908;8.364;2023-12-04T03:22:17;2.10;73.40
66140;DHT22;52945;51.908;8.364;2023-12-04T03:25:18;2.10;73.10
66140;DHT22;52945;51.908;8.364;2023-12-04T03:28:19;2.10;73.00
66140;DHT22;52945;51.908;8.364;2023-12-04T03:31:19;2.10;72.60
66140;DHT22;52945;51.908;8.364;2023-12-04T03:34:20;2.10;72.70
66140;DHT22;52945;51.908;8.364;2023-12-04T03:37:20;2.20;72.20
66140;DHT22;52945;51.908;8.364;2023-12-04T03:40:21;2.30;72.20
66140;DHT22;52945;51.908;8.364;2023-12-04T03:43:22;2.30;72.20
66140;DHT22;52945;51.908;8.364;2023-12-04T03:46:22;2.30;71.90
66140;DHT22;52945;51.908;8.364;2023-12-04T03:49:23;2.30;71.50
66140;DHT22;52945;51.908;8.364;2023-12-04T03:52:23;2.30;71.40
66140;DHT22;52945;51.908;8.364;2023-12-04T03:55:24;2.30;70.90
66140;DHT22;52945;51.908;8.364;2023-12-04T03:58:25;2.40;70.60
66140;DHT22;52945;51.908;8.364;2023-12-04T04:01:25;2.40;70.80
66140;DHT22;52945;51.908;8.364;2023-12-04T04:04:26;2.30;70.20
66140;DHT22;52945;51.908;8.364;2023-12-04T04:07:26;2.40;70.40
66140;DHT22;52945;51.908;8.364;2023-12-04T04:10:27;2.40;69.70
66140;DHT22;52945;51.908;8.364;2023-12-04T04:13:28;2.40;69.70
66140;DHT22;52945;51.908;8.364;2023-12-04T04:16:28;2.40;69.40
66140;DHT22;52945;51.908;8.364;2023-12-04T04:19:29;2.30;68.80
66140;DHT22;52945;51.908;8.364;2023-12-04T04:22:29;2.40;69.30
66140;DHT22;52945;51.908;8.364;2023-12-04T04:25:31;2.50;69.40
66140;DHT22;52945;51.908;8.364;2023-12-04T04:28:32;2.40;69.20
66140;DHT22;52945;51.908;8.364;2023-12-04T04:31:33;2.50;69.30
66140;DHT22;52945;51.908;8.364;2023-12-04T04:34:33;2.50;69.50
66140;DHT22;52945;51.908;8.364;2023-12-04T04:37:34;2.50;68.90
66140;DHT22;52945;51.908;8.364;2023-12-04T04:40:35;2.50;69.00
66140;DHT22;52945;51.908;8.364;2023-12-04T04:43:36;2.50;68.80
66140;DHT22;52945;51.908;8.364;2023-12-04T04:46:37;2.50;68.90
66140;DHT22;52945;51.908;8.364;2023-12-04T04:49:37;2.60;69.10
66140;DHT22;52945;51.908;8.364;2023-12-04T04:52:38;2.60;69.30
66140;DHT22;52945;51.908;8.364;2023-12-04T04:55:38;2.60;68.80
66140;DHT22;52945;51.908;8.364;2023-12-04T04:58:39;2.70;69.20
66140;DHT22;52945;51.908;8.364;2023-12-04T05:01:39;2.70;69.00
66140;DHT22;52945;51.908;8.364;2023-12-04T05:04:40;2.70;68.40
66140;DHT22;52945;51.908;8.364;2023-12-04T05:07:41;2.70;68.60
66140;DHT22;52945;51.908;8.364;2023-12-04T05:10:41;2.70;68.30
66140;DHT22;52945;51.908;8.364;2023-12-04T05:13:42;2.70;68.50
66140;DHT22;52945;51.908;8.364;2023-12-04T05:16:43;2.70;68.40
66140;DHT22;52945;51.908;8.364;2023-12-04T05:19:43;2.70;68.30
66140;DHT22;52945;51.908;8.364;2023-12-04T05:22:44;2.70;68.10
66140;DHT22;52945;51.908;8.364;2023-12-04T05:25:45;2.70;67.90
66140;DHT22;52945;51.908;8.364;2023-12-04T05:28:45;2.70;67.30
66140;DHT22;52945;51.908;8.364;2023-12-04T05:31:47;2.70;66.70
66140;DHT22;52945;51.908;8.364;2023-12-04T05:34:47;2.70;66.80
66140;DHT22;52945;51.908;8.364;2023-12-04T05:37:48;2.70;66.80
66140;DHT22;52945;51.908;8.364;2023-12-04T05:40:48;2.70;66.80
66140;DHT22;52945;51.908;8.364;2023-12-04T05:43:49;2.70;66.50
66140;DHT22;52945;51.908;8.364;2023-12-04T05:46:50;2.70;67.00
66140;DHT22;52945;51.908;8.364;2023-12-04T05:49:50;2.70;66.80
66140;DHT22;52945;51.908;8.364;2023-12-04T05:52:51;2.70;66.40
66140;DHT22;52945;51.908;8.364;2023-12-04T05:55:51;2.70;66.40
66140;DHT22;52945;51.908;8.364;2023-12-04T05:58:52;2.70;66.50
66140;DHT22;52945;51.908;8.364;2023-12-04T06:01:53;2.70;66.40
66140;DHT22;52945;51.908;8.364;2023-12-04T06:04:53;2.70;66.10
66140;DHT22;52945;51.908;8.364;2023-12-04T06:07:54;2.70;65.40
66140;DHT22;52945;51.908;8.364;2023-12-04T06:10:54;2.70;65.70
66140;DHT22;52945;51.908;8.364;2023-12-04T06:13:55;2.70;65.50
66140;DHT22;52945;51.908;8.364;2023-12-04T06:16:56;2.70;65.90
66140;DHT22;52945;51.908;8.364;2023-12-04T06:19:56;2.70;66.30
66140;DHT22;52945;51.908;8.364;2023-12-04T06:22:57;2.80;66.50
66140;DHT22;52945;51.908;8.364;2023-12-04T06:25:58;2.80;66.50
66140;DHT22;52945;51.908;8.364;2023-12-04T06:28:59;2.70;65.50
66140;DHT22;52945;51.908;8.364;2023-12-04T06:32:00;2.70;65.40
66140;DHT22;52945;51.908;8.364;2023-12-04T06:35:01;2.70;65.70
66140;DHT22;52945;51.908;8.364;2023-12-04T06:38:06;2.80;66.10
66140;DHT22;52945;51.908;8.364;2023-12-04T06:41:08;2.80;66.60
66140;DHT22;52945;51.908;8.364;2023-12-04T06:44:09;2.70;66.30
66140;DHT22;52945;51.908;8.364;2023-12-04T06:47:12;2.80;65.90
66140;DHT22;52945;51.908;8.364;2023-12-04T06:50:12;2.70;66.00
66140;DHT22;52945;51.908;8.364;2023-12-04T06:53:13;2.70;65.60
66140;DHT22;52945;51.908;8.364;2023-12-04T06:56:15;2.80;65.70
66140;DHT22;52945;51.908;8.364;2023-12-04T06:59:17;2.80;65.80
66140;DHT22;52945;51.908;8.364;2023-12-04T07:02:18;2.80;66.10
66140;DHT22;52945;51.908;8.364;2023-12-04T07:05:19;2.80;66.40
66140;DHT22;52945;51.908;8.364;2023-12-04T07:08:21;2.80;66.50
66140;DHT22;52945;51.908;8.364;2023-12-04T07:11:22;2.80;65.30
66140;DHT22;52945;51.908;8.364;2023-12-04T07:14:22;2.80;65.70
66140;DHT22;52945;51.908;8.364;2023-12-04T07:17:23;2.80;65.50
66140;DHT22;52945;51.908;8.364;2023-12-04T07:20:23;2.80;65.50
66140;DHT22;52945;51.908;8.364;2023-12-04T07:23:24;2.70;64.50
66140;DHT22;52945;51.908;8.364;2023-12-04T07:26:25;2.70;64.50
66140;DHT22;52945;51.908;8.364;2023-12-04T07:29:25;2.80;64.70
66140;DHT22;52945;51.908;8.364;2023-12-04T07:32:26;2.70;64.30
66140;DHT22;52945;51.908;8.364;2023-12-04T07:35:26;2.70;63.70
66140;DHT22;52945;51.908;8.364;2023-12-04T07:38:27;2.70;63.60
66140;DHT22;52945;51.908;8.364;2023-12-04T07:41:28;2.70;64.10
66140;DHT22;52945;51.908;8.364;2023-12-04T07:44:28;2.80;64.30
66140;DHT22;52945;51.908;8.364;2023-12-04T07:47:29;2.80;64.30
66140;DHT22;52945;51.908;8.364;2023-12-04T07:50:29;2.80;63.60
66140;DHT22;52945;51.908;8.364;2023-12-04T07:53:30;2.70;63.60
66140;DHT22;52945;51.908;8.364;2023-12-04T07:56:30;2.70;62.80
66140;DHT22;52945;51.908;8.364;2023-12-04T07:59:31;2.70;62.70
66140;DHT22;52945;51.908;8.364;2023-12-04T08:02:31;2.80;63.20
66140;DHT22;52945;51.908;8.364;2023-12-04T08:05:32;2.80;63.50
66140;DHT22;52945;51.908;8.364;2023-12-04T08:08:33;2.70;63.30
66140;DHT22;52945;51.908;8.364;2023-12-04T08:11:33;2.80;63.20
66140;DHT22;52945;51.908;8.364;2023-12-04T08:14:34;2.90;63.80
66140;DHT22;52945;51.908;8.364;2023-12-04T08:17:35;2.80;63.40
66140;DHT22;52945;51.908;8.364;2023-12-04T08:20:35;2.80;63.80
66140;DHT22;52945;51.908;8.364;2023-12-04T08:23:36;2.80;63.20
66140;DHT22;52945;51.908;8.364;2023-12-04T08:26:37;2.90;63.20
66140;DHT22;52945;51.908;8.364;2023-12-04T08:29:39;2.90;63.20
66140;DHT22;52945;51.908;8.364;2023-12-04T08:32:40;2.90;63.00
66140;DHT22;52945;51.908;8.364;2023-12-04T08:35:41;2.90;62.80
66140;DHT22;52945;51.908;8.364;2023-12-04T08:38:41;2.90;63.10
66140;DHT22;52945;51.908;8.364;2023-12-04T08:41:45;3.00;63.90
66140;DHT22;52945;51.908;8.364;2023-12-04T08:44:46;3.00;63.70
66140;DHT22;52945;51.908;8.364;2023-12-04T08:47:47;3.00;63.70
66140;DHT22;52945;51.908;8.364;2023-12-04T08:50:49;3.10;63.50
66140;DHT22;52945;51.908;8.364;2023-12-04T08:53:50;3.10;63.20
66140;DHT22;52945;51.908;8.364;2023-12-04T08:56:51;3.00;61.80
66140;DHT22;52945;51.908;8.364;2023-12-04T08:59:51;3.10;62.30
66140;DHT22;52945;51.908;8.364;2023-12-04T09:02:52;3.10;62.80
66140;DHT22;52945;51.908;8.364;2023-12-04T09:05:53;3.10;62.80
66140;DHT22;52945;51.908;8.364;2023-12-04T09:08:55;3.10;61.50
66140;DHT22;52945;51.908;8.364;2023-12-04T09:11:55;3.10;62.50
66140;DHT22;52945;51.908;8.364;2023-12-04T09:14:57;3.10;60.70
66140;DHT22;52945;51.908;8.364;2023-12-04T09:17:57;3.10;61.20
66140;DHT22;52945;51.908;8.364;2023-12-04T09:20:58;3.20;62.00
66140;DHT22;52945;51.908;8.364;2023-12-04T09:23:59;3.20;62.10
66140;DHT22;52945;51.908;8.364;2023-12-04T09:26:59;3.20;60.70
66140;DHT22;52945;51.908;8.364;2023-12-04T09:30:01;3.20;60.30
66140;DHT22;52945;51.908;8.364;2023-12-04T09:33:01;3.10;60.00
66140;DHT22;52945;51.908;8.364;2023-12-04T09:36:03;3.20;60.40
66140;DHT22;52945;51.908;8.364;2023-12-04T09:39:03;3.20;59.70
66140;DHT22;52945;51.908;8.364;2023-12-04T09:42:04;3.30;60.60
66140;DHT22;52945;51.908;8.364;2023-12-04T09:45:06;3.30;59.50
66140;DHT22;52945;51.908;8.364;2023-12-04T09:48:08;3.20;59.10
66140;DHT22;52945;51.908;8.364;2023-12-04T09:51:10;3.20;58.50
66140;DHT22;52945;51.908;8.364;2023-12-04T09:54:11;3.30;59.40
66140;DHT22;52945;51.908;8.364;2023-12-04T09:57:13;3.30;59.00
66140;DHT22;52945;51.908;8.364;2023-12-04T10:00:14;3.30;58.30
66140;DHT22;52945;51.908;8.364;2023-12-04T10:03:15;3.30;58.10
66140;DHT22;52945;51.908;8.364;2023-12-04T10:06:16;3.30;57.70
66140;DHT22;52945;51.908;8.364;2023-12-04T10:09:19;3.30;57.50
66140;DHT22;52945;51.908;8.364;2023-12-04T10:12:22;3.30;57.00
66140;DHT22;52945;51.908;8.364;2023-12-04T10:15:23;3.30;57.30
66140;DHT22;52945;51.908;8.364;2023-12-04T10:18:28;3.40;56.80
66140;DHT22;52945;51.908;8.364;2023-12-04T10:21:32;3.40;57.10
66140;DHT22;52945;51.908;8.364;2023-12-04T10:24:39;3.40;56.60
66140;DHT22;52945;51.908;8.364;2023-12-04T10:27:40;3.40;56.90
66140;DHT22;52945;51.908;8.364;2023-12-04T10:30:41;3.50;57.60
66140;DHT22;52945;51.908;8.364;2023-12-04T10:33:41;3.40;56.80
66140;DHT22;52945;51.908;8.364;2023-12-04T10:36:42;3.50;57.00
66140;DHT22;52945;51.908;8.364;2023-12-04T10:39:50;3.50;56.80
66140;DHT22;52945;51.908;8.364;2023-12-04T10:42:51;3.50;57.30
66140;DHT22;52945;51.908;8.364;2023-12-04T10:45:52;3.50;56.80
66140;DHT22;52945;51.908;8.364;2023-12-04T10:48:55;3.50;56.90
66140;DHT22;52945;51.908;8.364;2023-12-04T10:51:58;3.50;57.50
66140;DHT22;52945;51.908;8.364;2023-12-04T10:55:01;3.60;57.70
66140;DHT22;52945;51.908;8.364;2023-12-04T10:58:06;3.50;56.80
66140;DHT22;52945;51.908;8.364;2023-12-04T11:01:09;3.50;57.70
66140;DHT22;52945;51.908;8.364;2023-12-04T11:04:16;3.60;57.50
66140;DHT22;52945;51.908;8.364;2023-12-04T11:07:19;3.40;56.40
66140;DHT22;52945;51.908;8.364;2023-12-04T11:10:24;3.50;57.20
66140;DHT22;52945;51.908;8.364;2023-12-04T11:13:37;3.50;57.00
66140;DHT22;52945;51.908;8.364;2023-12-04T11:16:49;3.40;56.80
66140;DHT22;52945;51.908;8.364;2023-12-04T11:19:59;3.50;57.60
66140;DHT22;52945;51.908;8.364;2023-12-04T11:23:03;3.50;57.90
66140;DHT22;52945;51.908;8.364;2023-12-04T11:26:08;3.60;58.00
66140;DHT22;52945;51.908;8.364;2023-12-04T11:29:10;3.40;57.60
66140;DHT22;52945;51.908;8.364;2023-12-04T11:32:15;3.40;58.20
66140;DHT22;52945;51.908;8.364;2023-12-04T11:35:17;3.30;59.00
66140;DHT22;52945;51.908;8.364;2023-12-04T11:38:18;3.40;59.20
66140;DHT22;52945;51.908;8.364;2023-12-04T11:41:20;3.40;59.20
66140;DHT22;52945;51.908;8.364;2023-12-04T11:44:21;3.40;58.80
66140;DHT22;52945;51.908;8.364;2023-12-04T11:47:23;3.20;57.10
66140;DHT22;52945;51.908;8.364;2023-12-04T11:50:26;3.30;57.50
66140;DHT22;52945;51.908;8.364;2023-12-04T11:53:27;3.30;56.80
66140;DHT22;52945;51.908;8.364;2023-12-04T11:56:28;3.30;57.10
66140;DHT22;52945;51.908;8.364;2023-12-04T11:59:28;3.40;56.40
66140;DHT22;52945;51.908;8.364;2023-12-04T12:02:30;3.40;56.50
66140;DHT22;52945;51.908;8.364;2023-12-04T12:05:32;3.40;56.50
66140;DHT22;52945;51.908;8.364;2023-12-04T12:08:34;3.50;56.80
66140;DHT22;52945;51.908;8.364;2023-12-04T12:11:34;3.60;57.00
66140;DHT22;52945;51.908;8.364;2023-12-04T12:14:35;3.50;55.70
66140;DHT22;52945;51.908;8.364;2023-12-04T12:17:37;3.70;57.60
66140;DHT22;52945;51.908;8.364;2023-12-04T12:20:39;3.60;56.70
66140;DHT22;52945;51.908;8.364;2023-12-04T12:23:40;3.70;57.60
66140;DHT22;52945;51.908;8.364;2023-12-04T12:26:41;3.70;57.60
66140;DHT22;52945;51.908;8.364;2023-12-04T12:29:42;3.70;58.10
66140;DHT22;52945;51.908;8.364;2023-12-04T12:32:43;3.70;56.40
66140;DHT22;52945;51.908;8.364;2023-12-04T12:35:44;3.60;56.60
66140;DHT22;52945;51.908;8.364;2023-12-04T12:38:45;3.60;55.90
66140;DHT22;52945;51.908;8.364;2023-12-04T12:41:50;3.60;56.70
66140;DHT22;52945;51.908;8.364;2023-12-04T12:44:51;3.60;56.40
66140;DHT22;52945;51.908;8.364;2023-12-04T12:47:52;3.60;56.50
66140;DHT22;52945;51.908;8.364;2023-12-04T12:50:54;3.60;56.60
66140;DHT22;52945;51.908;8.364;2023-12-04T12:53:57;3.70;57.60
66140;DHT22;52945;51.908;8.364;2023-12-04T12:56:57;3.60;56.40
66140;DHT22;52945;51.908;8.364;2023-12-04T12:59:58;3.60;56.50
66140;DHT22;52945;51.908;8.364;2023-12-04T13:02:58;3.70;56.80
66140;DHT22;52945;51.908;8.364;2023-12-04T13:05:59;3.70;56.50
66140;DHT22;52945;51.908;8.364;2023-12-04T13:09:00;3.60;56.60
66140;DHT22;52945;51.908;8.364;2023-12-04T13:12:00;3.60;56.60
66140;DHT22;52945;51.908;8.364;2023-12-04T13:15:01;3.60;57.00
66140;DHT22;52945;51.908;8.364;2023-12-04T13:18:04;3.70;57.20
66140;DHT22;52945;51.908;8.364;2023-12-04T13:21:05;3.70;56.70
66140;DHT22;52945;51.908;8.364;2023-12-04T13:24:05;3.70;57.30
66140;DHT22;52945;51.908;8.364;2023-12-04T13:27:09;3.70;57.40
66140;DHT22;52945;51.908;8.364;2023-12-04T13:30:10;3.80;57.90
66140;DHT22;52945;51.908;8.364;2023-12-04T13:33:11;3.70;57.20
66140;DHT22;52945;51.908;8.364;2023-12-04T13:36:11;3.80;57.60
66140;DHT22;52945;51.908;8.364;2023-12-04T13:39:12;3.80;58.20
66140;DHT22;52945;51.908;8.364;2023-12-04T13:42:42;3.80;57.80
66140;DHT22;52945;51.908;8.364;2023-12-04T13:46:01;3.90;57.90
66140;DHT22;52945;51.908;8.364;2023-12-04T13:49:07;3.80;57.50
66140;DHT22;52945;51.908;8.364;2023-12-04T13:52:07;3.80;56.80
66140;DHT22;52945;51.908;8.364;2023-12-04T13:55:09;3.80;57.20
66140;DHT22;52945;51.908;8.364;2023-12-04T13:58:21;3.80;57.00
66140;DHT22;52945;51.908;8.364;2023-12-04T14:01:39;3.70;56.80
66140;DHT22;52945;51.908;8.364;2023-12-04T14:04:42;3.80;57.60
66140;DHT22;52945;51.908;8.364;2023-12-04T14:07:43;3.80;57.90
66140;DHT22;52945;51.908;8.364;2023-12-04T14:10:44;3.90;57.80
66140;DHT22;52945;51.908;8.364;2023-12-04T14:13:45;3.80;57.80
66140;DHT22;52945;51.908;8.364;2023-12-04T14:16:45;3.90;58.00
66140;DHT22;52945;51.908;8.364;2023-12-04T14:19:47;3.80;58.00
66140;DHT22;52945;51.908;8.364;2023-12-04T14:22:48;3.70;57.40
66140;DHT22;52945;51.908;8.364;2023-12-04T14:25:48;3.80;58.40
66140;DHT22;52945;51.908;8.364;2023-12-04T14:28:49;3.70;58.20
66140;DHT22;52945;51.908;8.364;2023-12-04T14:31:49;3.80;58.70
66140;DHT22;52945;51.908;8.364;2023-12-04T14:34:50;3.80;59.20
66140;DHT22;52945;51.908;8.364;2023-12-04T14:37:51;3.70;59.10
66140;DHT22;52945;51.908;8.364;2023-12-04T14:40:51;3.70;59.70
66140;DHT22;52945;51.908;8.364;2023-12-04T14:43:52;3.60;60.00
66140;DHT22;52945;51.908;8.364;2023-12-04T14:46:54;3.70;60.70
66140;DHT22;52945;51.908;8.364;2023-12-04T14:49:54;3.60;61.20
66140;DHT22;52945;51.908;8.364;2023-12-04T14:52:56;3.60;61.90
66140;DHT22;52945;51.908;8.364;2023-12-04T14:55:58;3.70;62.40
66140;DHT22;52945;51.908;8.364;2023-12-04T14:59:17;3.70;62.70
66140;DHT22;52945;51.908;8.364;2023-12-04T15:02:23;3.70;62.90
66140;DHT22;52945;51.908;8.364;2023-12-04T15:05:30;3.70;63.20
66140;DHT22;52945;51.908;8.364;2023-12-04T15:08:59;3.70;63.60
66140;DHT22;52945;51.908;8.364;2023-12-04T15:12:14;3.70;64.10
66140;DHT22;52945;51.908;8.364;2023-12-04T15:15:27;3.60;64.90
66140;DHT22;52945;51.908;8.364;2023-12-04T15:18:50;3.60;65.60
66140;DHT22;52945;51.908;8.364;2023-12-04T15:21:53;3.60;66.40
66140;DHT22;52945;51.908;8.364;2023-12-04T15:24:53;3.50;67.10
66140;DHT22;52945;51.908;8.364;2023-12-04T15:27:54;3.30;67.60
66140;DHT22;52945;51.908;8.364;2023-12-04T15:30:54;3.40;67.90
66140;DHT22;52945;51.908;8.364;2023-12-04T15:33:59;3.40;68.10
66140;DHT22;52945;51.908;8.364;2023-12-04T15:36:59;3.40;68.40
66140;DHT22;52945;51.908;8.364;2023-12-04T15:40:01;3.30;69.10
66140;DHT22;52945;51.908;8.364;2023-12-04T15:43:02;3.20;69.60
66140;DHT22;52945;51.908;8.364;2023-12-04T15:46:02;3.10;69.80
66140;DHT22;52945;51.908;8.364;2023-12-04T15:49:03;3.10;70.40
66140;DHT22;52945;51.908;8.364;2023-12-04T15:52:04;3.10;70.40
66140;DHT22;52945;51.908;8.364;2023-12-04T15:55:05;3.10;70.40
66140;DHT22;52945;51.908;8.364;2023-12-04T15:58:05;3.10;70.60
66140;DHT22;52945;51.908;8.364;2023-12-04T16:01:06;3.10;70.60
66140;DHT22;52945;51.908;8.364;2023-12-04T16:04:07;3.10;70.70
66140;DHT22;52945;51.908;8.364;2023-12-04T16:07:07;3.20;70.60
66140;DHT22;52945;51.908;8.364;2023-12-04T16:10:09;3.10;70.50
66140;DHT22;52945;51.908;8.364;2023-12-04T16:13:10;3.10;70.90
66140;DHT22;52945;51.908;8.364;2023-12-04T16:16:11;3.10;70.60
66140;DHT22;52945;51.908;8.364;2023-12-04T16:19:12;3.10;70.60
66140;DHT22;52945;51.908;8.364;2023-12-04T16:22:12;3.10;70.70
66140;DHT22;52945;51.908;8.364;2023-12-04T16:25:13;3.20;70.70
66140;DHT22;52945;51.908;8.364;2023-12-04T16:28:17;3.10;70.80
66140;DHT22;52945;51.908;8.364;2023-12-04T16:31:18;3.20;70.90
66140;DHT22;52945;51.908;8.364;2023-12-04T16:34:19;3.10;70.80
66140;DHT22;52945;51.908;8.364;2023-12-04T16:37:21;3.10;70.90
66140;DHT22;52945;51.908;8.364;2023-12-04T16:40:22;3.10;70.90
66140;DHT22;52945;51.908;8.364;2023-12-04T16:43:23;3.10;71.00
66140;DHT22;52945;51.908;8.364;2023-12-04T16:46:23;3.10;71.00
66140;DHT22;52945;51.908;8.364;2023-12-04T16:49:24;3.10;71.00
66140;DHT22;52945;51.908;8.364;2023-12-04T16:52:25;3.20;71.10
66140;DHT22;52945;51.908;8.364;2023-12-04T16:55:25;3.10;70.80
66140;DHT22;52945;51.908;8.364;2023-12-04T16:58:26;3.10;71.00
66140;DHT22;52945;51.908;8.364;2023-12-04T17:01:28;3.10;71.00
66140;DHT22;52945;51.908;8.364;2023-12-04T17:04:28;3.10;71.10
66140;DHT22;52945;51.908;8.364;2023-12-04T17:07:29;3.20;71.00
66140;DHT22;52945;51.908;8.364;2023-12-04T17:10:30;3.20;70.90
66140;DHT22;52945;51.908;8.364;2023-12-04T17:13:30;3.20;70.80
66140;DHT22;52945;51.908;8.364;2023-12-04T17:16:31;3.10;70.90
66140;DHT22;52945;51.908;8.364;2023-12-04T17:19:32;3.10;70.60
66140;DHT22;52945;51.908;8.364;2023-12-04T17:22:33;3.10;70.80
66140;DHT22;52945;51.908;8.364;2023-12-04T17:25:34;3.10;71.00
66140;DHT22;52945;51.908;8.364;2023-12-04T17:28:36;3.10;71.00
66140;DHT22;52945;51.908;8.364;2023-12-04T17:31:37;3.10;71.00
66140;DHT22;52945;51.908;8.364;2023-12-04T17:34:39;3.20;71.00
66140;DHT22;52945;51.908;8.364;2023-12-04T17:37:39;3.20;71.20
66140;DHT22;52945;51.908;8.364;2023-12-04T17:40:41;3.10;71.20
66140;DHT22;52945;51.908;8.364;2023-12-04T17:43:42;3.20;71.30
66140;DHT22;52945;51.908;8.364;2023-12-04T17:46:42;3.20;71.40
66140;DHT22;52945;51.908;8.364;2023-12-04T17:49:43;3.10;71.50
66140;DHT22;52945;51.908;8.364;2023-12-04T17:52:44;3.20;71.50
66140;DHT22;52945;51.908;8.364;2023-12-04T17:55:44;3.20;71.60
66140;DHT22;52945;51.908;8.364;2023-12-04T17:58:45;3.10;71.90
66140;DHT22;52945;51.908;8.364;2023-12-04T18:01:46;3.00;72.40
66140;DHT22;52945;51.908;8.364;2023-12-04T18:04:47;3.10;72.60
66140;DHT22;52945;51.908;8.364;2023-12-04T18:07:51;3.10;72.90
66140;DHT22;52945;51.908;8.364;2023-12-04T18:10:52;3.10;73.00
66140;DHT22;52945;51.908;8.364;2023-12-04T18:13:53;2.90;73.80
66140;DHT22;52945;51.908;8.364;2023-12-04T18:16:53;3.00;74.10
66140;DHT22;52945;51.908;8.364;2023-12-04T18:19:54;3.10;74.10
66140;DHT22;52945;51.908;8.364;2023-12-04T18:22:55;3.00;74.40
66140;DHT22;52945;51.908;8.364;2023-12-04T18:25:56;3.00;74.70
66140;DHT22;52945;51.908;8.364;2023-12-04T18:28:57;3.00;74.90
66140;DHT22;52945;51.908;8.364;2023-12-04T18:31:57;2.90;74.90
66140;DHT22;52945;51.908;8.364;2023-12-04T18:34:59;2.80;75.30
66140;DHT22;52945;51.908;8.364;2023-12-04T18:38:06;2.70;75.80
66140;DHT22;52945;51.908;8.364;2023-12-04T18:41:10;2.70;75.90
66140;DHT22;52945;51.908;8.364;2023-12-04T18:44:11;2.70;76.20
66140;DHT22;52945;51.908;8.364;2023-12-04T18:47:16;2.70;76.50
66140;DHT22;52945;51.908;8.364;2023-12-04T18:50:17;2.60;77.00
66140;DHT22;52945;51.908;8.364;2023-12-04T18:53:18;2.70;76.90
66140;DHT22;52945;51.908;8.364;2023-12-04T18:56:19;2.80;76.30
66140;DHT22;52945;51.908;8.364;2023-12-04T18:59:21;2.80;76.30
66140;DHT22;52945;51.908;8.364;2023-12-04T19:02:21;2.80;76.10
66140;DHT22;52945;51.908;8.364;2023-12-04T19:05:22;2.70;76.50
66140;DHT22;52945;51.908;8.364;2023-12-04T19:08:25;2.70;76.90
66140;DHT22;52945;51.908;8.364;2023-12-04T19:11:26;2.80;76.50
66140;DHT22;52945;51.908;8.364;2023-12-04T19:14:28;2.80;76.30
66140;DHT22;52945;51.908;8.364;2023-12-04T19:17:28;2.80;76.20
66140;DHT22;52945;51.908;8.364;2023-12-04T19:20:29;2.80;76.30
66140;DHT22;52945;51.908;8.364;2023-12-04T19:23:31;2.70;76.40